Time;durP1;ratioP1;P1;durP2;ratioP2;P2;SDS_P1;SDS_P2;PMS_P1;PMS_P2;Temp;Humidity;BMP_temperature;BMP_pressure;BME280_temperature;BME280_humidity;BME280_pressure;Samples;Min_cycle;Max_cycle;Signal;HPM_P1;HPM_P2
2022/01/09 00:00:37;;;;;;;;;29.00;26.00;;;;;21.61;49.90;99846.27;113083;1242;18606;-71
2022/01/09 00:03:08;;;;;;;;;26.67;22.67;;;;;21.62;50.07;99845.46;113080;1242;19414;-73
2022/01/09 00:05:34;;;;;;;;;26.50;23.00;;;;;21.60;49.92;99845.08;113025;1242;19074;-72
2022/01/09 00:08:00;;;;;;;;;25.50;24.00;;;;;21.61;49.94;99846.09;113034;1242;19226;-72
2022/01/09 00:10:27;;;;;;;;;29.00;25.50;;;;;21.62;49.71;99844.70;113024;1242;20665;-72
2022/01/09 00:12:53;;;;;;;;;26.67;23.00;;;;;21.62;49.87;99846.52;112977;1242;22102;-70
2022/01/09 00:15:18;;;;;;;;;25.00;23.00;;;;;21.63;49.81;99846.26;113061;1242;20169;-72
2022/01/09 00:17:44;;;;;;;;;24.50;20.50;;;;;21.61;49.95;99848.23;113113;1242;19206;-71
2022/01/09 00:20:11;;;;;;;;;22.50;21.00;;;;;21.62;49.82;99848.40;113019;1242;19001;-73
2022/01/09 00:22:41;;;;;;;;;28.00;23.00;;;;;21.61;49.80;99845.16;113012;1242;23242;-71
2022/01/09 00:25:07;;;;;;;;;27.67;24.33;;;;;21.62;49.67;99842.91;113051;1242;19472;-71
2022/01/09 00:27:32;;;;;;;;;21.50;21.00;;;;;21.61;49.73;99837.53;113002;1242;21868;-72
2022/01/09 00:29:58;;;;;;;;;29.00;26.00;;;;;21.61;49.81;99836.62;112968;1242;18783;-71
2022/01/09 00:32:24;;;;;;;;;25.00;24.50;;;;;21.61;49.71;99839.17;112984;1242;19251;-73
2022/01/09 00:34:50;;;;;;;;;25.00;22.00;;;;;21.61;49.76;99835.90;112987;1242;18417;-72
2022/01/09 00:37:16;;;;;;;;;26.50;25.00;;;;;21.60;49.62;99837.63;113010;1242;19194;-71
2022/01/09 00:39:42;;;;;;;;;27.00;22.50;;;;;21.61;49.65;99839.05;113007;1242;19395;-71
2022/01/09 00:42:08;;;;;;;;;27.50;24.00;;;;;21.61;49.52;99837.16;112981;1242;21007;-71
2022/01/09 00:44:34;;;;;;;;;25.00;22.00;;;;;21.58;49.50;99829.80;113058;1242;19135;-71
2022/01/09 00:47:00;;;;;;;;;25.00;23.00;;;;;21.60;49.41;99830.20;112974;1242;20579;-71
2022/01/09 00:49:26;;;;;;;;;22.00;21.67;;;;;21.59;49.32;99820.68;112977;1242;18616;-73
2022/01/09 00:51:52;;;;;;;;;28.00;24.00;;;;;21.59;49.57;99827.09;113086;1242;18570;-73
2022/01/09 00:54:18;;;;;;;;;23.50;21.00;;;;;21.59;49.53;99820.17;113106;1242;19120;-72
2022/01/09 00:56:43;;;;;;;;;22.00;21.00;;;;;21.58;49.56;99815.96;113016;1242;22924;-72
2022/01/09 00:59:10;;;;;;;;;25.00;23.50;;;;;21.59;49.42;99816.69;112981;1242;20018;-72
2022/01/09 01:01:36;;;;;;;;;23.67;22.33;;;;;21.59;49.49;99813.42;112648;1242;21123;-73
2022/01/09 01:04:02;;;;;;;;;22.00;20.00;;;;;21.59;49.19;99813.20;112985;1242;18886;-72
2022/01/09 01:06:28;;;;;;;;;28.00;21.50;;;;;21.59;49.26;99808.55;112982;1242;19163;-72
2022/01/09 01:08:53;;;;;;;;;24.00;21.50;;;;;21.58;49.42;99807.23;113002;1242;21810;-72
2022/01/09 01:11:20;;;;;;;;;26.00;22.50;;;;;21.58;49.31;99808.70;113022;1242;18654;-71
2022/01/09 01:13:46;;;;;;;;;27.33;22.67;;;;;21.58;49.31;99807.41;112974;1242;20489;-71
2022/01/09 01:16:12;;;;;;;;;33.00;26.00;;;;;21.58;49.29;99805.63;113032;1242;19860;-73
2022/01/09 01:18:38;;;;;;;;;25.00;22.00;;;;;21.57;49.23;99808.20;113026;1242;18561;-72
2022/01/09 01:21:04;;;;;;;;;23.00;22.50;;;;;21.57;49.13;99810.08;113015;1242;18596;-74
2022/01/09 01:23:30;;;;;;;;;27.00;25.00;;;;;21.57;48.98;99807.27;112994;1242;20590;-74
2022/01/09 01:26:00;;;;;;;;;25.00;21.00;;;;;21.58;49.11;99813.05;113001;1242;19293;-70
2022/01/09 01:28:26;;;;;;;;;25.67;22.33;;;;;21.57;49.11;99806.02;112989;1242;18962;-71
2022/01/09 01:30:52;;;;;;;;;24.50;21.50;;;;;21.57;49.20;99804.17;113011;1241;19254;-71
2022/01/09 01:33:18;;;;;;;;;21.00;20.00;;;;;21.58;48.98;99803.20;113020;1242;18572;-71
2022/01/09 01:35:44;;;;;;;;;22.50;21.50;;;;;21.58;49.01;99803.21;113025;1242;18677;-71
2022/01/09 01:38:10;;;;;;;;;27.00;22.50;;;;;21.58;49.05;99800.90;113014;1242;19142;-71
2022/01/09 01:40:35;;;;;;;;;22.50;19.00;;;;;21.56;49.07;99798.17;112980;1242;22335;-70
2022/01/09 01:43:01;;;;;;;;;26.00;22.00;;;;;21.56;48.94;99795.44;113010;1242;18515;-71
2022/01/09 01:45:27;;;;;;;;;22.50;19.00;;;;;21.58;48.91;99796.50;112982;1242;19140;-71
2022/01/09 01:47:53;;;;;;;;;25.50;22.50;;;;;21.57;48.80;99796.04;113034;1242;18778;-72
2022/01/09 01:50:19;;;;;;;;;24.00;22.00;;;;;21.57;48.86;99790.82;113034;1242;19078;-71
2022/01/09 01:52:49;;;;;;;;;24.67;21.67;;;;;21.57;48.76;99788.23;113015;1242;19689;-71
2022/01/09 01:55:15;;;;;;;;;23.00;20.00;;;;;21.55;48.98;99778.10;113050;1242;20642;-71
2022/01/09 01:57:41;;;;;;;;;26.33;21.33;;;;;21.57;48.77;99777.02;113019;1242;20925;-71
2022/01/09 02:00:06;;;;;;;;;26.00;21.00;;;;;21.57;48.84;99777.90;112982;1242;19364;-71
2022/01/09 02:02:32;;;;;;;;;22.50;22.50;;;;;21.57;48.83;99776.27;113091;1241;18392;-71
2022/01/09 02:04:58;;;;;;;;;21.50;21.00;;;;;21.56;48.86;99776.90;113089;1242;22392;-71
2022/01/09 02:07:24;;;;;;;;;25.50;22.00;;;;;21.57;48.82;99778.79;113068;1242;19130;-71
2022/01/09 02:09:50;;;;;;;;;23.00;23.00;;;;;21.56;48.63;99776.73;113086;1242;18609;-71
2022/01/09 02:12:16;;;;;;;;;23.00;22.00;;;;;21.56;48.70;99776.02;113045;1242;18523;-70
2022/01/09 02:14:46;;;;;;;;;20.00;20.00;;;;;21.56;48.73;99773.38;113046;1242;20855;-71
2022/01/09 02:17:12;;;;;;;;;23.33;21.00;;;;;21.56;48.78;99768.59;113018;1242;21990;-72
2022/01/09 02:19:37;;;;;;;;;22.50;21.00;;;;;21.55;48.63;99764.36;113057;1242;18622;-72
2022/01/09 02:22:03;;;;;;;;;25.00;22.00;;;;;21.55;48.63;99761.08;113005;1242;19214;-72
2022/01/09 02:24:29;;;;;;;;;22.00;19.00;;;;;21.56;48.54;99761.16;113033;1242;18613;-71
2022/01/09 02:26:55;;;;;;;;;22.50;21.50;;;;;21.55;48.65;99751.77;113057;1242;20031;-71
2022/01/09 02:29:21;;;;;;;;;23.50;23.50;;;;;21.55;48.54;99740.58;113016;1242;19409;-71
2022/01/09 02:31:47;;;;;;;;;25.00;22.00;;;;;21.54;48.42;99735.04;113023;1242;18409;-71
2022/01/09 02:34:13;;;;;;;;;22.00;21.00;;;;;21.54;48.56;99732.02;113009;1241;18437;-72
2022/01/09 02:36:38;;;;;;;;;22.00;21.00;;;;;21.53;48.48;99723.34;113017;1242;19829;-72
2022/01/09 02:39:04;;;;;;;;;21.00;21.00;;;;;21.53;48.36;99725.85;113050;1242;18388;-73
2022/01/09 02:41:30;;;;;;;;;22.50;22.00;;;;;21.51;48.51;99714.98;113096;1242;19301;-71
2022/01/09 02:43:56;;;;;;;;;23.50;21.50;;;;;21.54;48.32;99717.13;113023;1241;19361;-71
2022/01/09 02:46:39;;;;;;;;;26.00;25.00;;;;;21.53;48.17;99718.02;113015;1242;18396;-72
2022/01/09 02:49:05;;;;;;;;;21.00;21.00;;;;;21.52;48.45;99723.66;113002;1242;20357;-71
2022/01/09 02:51:31;;;;;;;;;18.33;18.00;;;;;21.53;48.41;99725.23;113007;1242;19449;-71
2022/01/09 02:55:03;;;;;;;;;25.00;21.00;;;;;21.53;48.22;99719.35;113012;1240;24195;-71
2022/01/09 02:56:42;;;;;;;;;25.00;21.33;;;;;21.52;48.32;99715.12;113052;1242;18756;-71
2022/01/09 02:59:08;;;;;;;;;21.00;21.00;;;;;21.53;48.08;99712.09;113078;1242;19189;-71
2022/01/09 03:01:34;;;;;;;;;28.00;23.00;;;;;21.52;48.11;99708.86;113083;1242;18352;-71
2022/01/09 03:04:00;;;;;;;;;22.50;18.50;;;;;21.51;48.26;99706.17;113013;1242;19881;-70
2022/01/09 03:06:26;;;;;;;;;24.50;20.50;;;;;21.49;48.28;99701.55;113029;1242;19764;-71
2022/01/09 03:08:52;;;;;;;;;19.00;18.00;;;;;21.51;48.07;99705.70;113000;1242;19088;-71
2022/01/09 03:11:18;;;;;;;;;23.00;21.50;;;;;21.51;48.14;99703.35;113013;1242;18792;-70
2022/01/09 03:13:44;;;;;;;;;22.33;21.33;;;;;21.51;48.00;99701.27;113010;1242;19441;-70
2022/01/09 03:16:10;;;;;;;;;22.00;19.00;;;;;21.49;48.02;99697.31;113017;1241;19638;-70
2022/01/09 03:18:36;;;;;;;;;22.00;21.00;;;;;21.49;48.16;99693.00;113065;1242;18608;-73
2022/01/09 03:21:01;;;;;;;;;24.50;20.50;;;;;21.50;48.11;99689.84;112973;1242;19138;-71
2022/01/09 03:23:27;;;;;;;;;22.50;21.50;;;;;21.49;47.89;99681.92;112885;1242;18393;-71
2022/01/09 03:25:53;;;;;;;;;22.00;20.00;;;;;21.50;47.93;99686.95;113002;1242;22195;-69
2022/01/09 03:28:19;;;;;;;;;22.00;18.50;;;;;21.49;48.04;99679.73;113033;1241;21406;-70
2022/01/09 03:30:45;;;;;;;;;23.00;19.50;;;;;21.50;47.82;99681.92;113009;1242;18630;-71
2022/01/09 03:33:11;;;;;;;;;22.00;18.00;;;;;21.49;48.00;99678.77;113063;1242;18579;-74
2022/01/09 03:35:36;;;;;;;;;21.00;20.00;;;;;21.50;47.85;99676.94;112989;1242;20023;-72
2022/01/09 03:38:02;;;;;;;;;22.00;18.00;;;;;21.49;47.92;99679.36;113037;1242;24262;-69
2022/01/09 03:40:29;;;;;;;;;22.00;21.50;;;;;21.49;47.92;99676.64;113066;1242;18674;-70
2022/01/09 03:42:55;;;;;;;;;25.00;21.33;;;;;21.49;47.76;99676.10;113073;1242;19449;-70
2022/01/09 03:45:21;;;;;;;;;27.00;24.67;;;;;21.49;47.75;99675.08;112996;1242;19755;-71
2022/01/09 03:47:47;;;;;;;;;21.00;19.00;;;;;21.49;47.77;99678.69;112995;1242;19261;-70
2022/01/09 03:50:12;;;;;;;;;23.50;18.00;;;;;21.49;47.79;99674.33;113002;1242;19226;-71
2022/01/09 03:52:39;;;;;;;;;28.50;22.00;;;;;21.49;47.63;99671.36;113051;1242;19073;-72
2022/01/09 03:55:05;;;;;;;;;19.33;19.33;;;;;21.49;47.75;99664.69;113060;1242;19349;-71
2022/01/09 03:57:31;;;;;;;;;24.00;21.00;;;;;21.48;47.58;99659.52;113060;1242;19869;-71
2022/01/09 03:59:56;;;;;;;;;23.00;19.50;;;;;21.50;47.55;99661.16;113003;1241;18363;-70
2022/01/09 04:02:22;;;;;;;;;21.00;18.00;;;;;21.45;47.61;99651.44;113012;1241;19242;-70
2022/01/09 04:04:48;;;;;;;;;21.00;18.00;;;;;21.47;47.46;99655.85;113031;1242;19329;-70
2022/01/09 04:07:15;;;;;;;;;26.00;22.00;;;;;21.48;47.58;99652.70;113029;1242;18352;-72
2022/01/09 04:09:44;;;;;;;;;22.00;20.67;;;;;21.48;47.40;99647.08;112994;1242;20693;-70
2022/01/09 04:12:15;;;;;;;;;25.00;22.00;;;;;21.48;47.51;99643.42;112957;1242;19465;-72
2022/01/09 04:14:41;;;;;;;;;24.00;21.00;;;;;21.47;47.68;99639.69;113056;1242;20227;-70
2022/01/09 04:17:11;;;;;;;;;22.50;20.50;;;;;21.47;47.46;99639.33;113027;1242;18662;-70
2022/01/09 04:19:37;;;;;;;;;26.00;20.67;;;;;21.47;47.32;99632.82;113088;1242;19606;-71
2022/01/09 04:22:03;;;;;;;;;25.00;20.00;;;;;21.46;47.18;99629.11;113078;1242;21295;-71
2022/01/09 04:24:29;;;;;;;;;18.50;17.50;;;;;21.46;47.35;99628.56;113009;1242;22397;-71
2022/01/09 04:26:55;;;;;;;;;22.00;19.00;;;;;21.45;47.34;99621.05;113009;1242;21348;-70
2022/01/09 04:29:21;;;;;;;;;20.33;18.00;;;;;21.45;47.10;99621.22;113033;1242;20969;-70
2022/01/09 04:31:47;;;;;;;;;19.00;18.00;;;;;21.45;47.13;99621.64;113024;1242;18493;-70
2022/01/09 04:34:12;;;;;;;;;24.00;21.00;;;;;21.41;47.26;99617.20;113006;1241;19766;-70
2022/01/09 04:36:38;;;;;;;;;25.00;20.00;;;;;21.44;47.36;99619.00;113013;1242;18985;-71
2022/01/09 04:39:04;;;;;;;;;21.50;20.00;;;;;21.44;47.18;99617.20;113064;1242;18595;-71
2022/01/09 04:41:30;;;;;;;;;24.00;24.00;;;;;21.44;47.27;99611.38;112998;1242;20115;-71
2022/01/09 04:43:56;;;;;;;;;21.50;20.50;;;;;21.44;47.30;99613.89;113031;1242;18953;-71
2022/01/09 04:46:27;;;;;;;;;22.00;18.00;;;;;21.44;47.16;99615.73;113022;1242;18552;-72
2022/01/09 04:48:55;;;;;;;;;24.00;22.00;;;;;21.44;47.17;99621.73;113022;1241;21521;-71
2022/01/09 04:51:21;;;;;;;;;26.33;19.33;;;;;21.44;46.83;99623.03;113013;1242;21862;-71
2022/01/09 04:53:47;;;;;;;;;21.00;18.00;;;;;21.44;47.02;99621.82;113052;1242;18472;-72
2022/01/09 04:56:12;;;;;;;;;21.00;20.00;;;;;21.44;47.10;99621.98;112992;1242;19972;-72
2022/01/09 04:58:38;;;;;;;;;19.00;17.00;;;;;21.44;46.96;99618.58;113004;1242;18543;-70
2022/01/09 05:01:04;;;;;;;;;22.00;19.00;;;;;21.43;47.04;99615.27;113003;1241;19337;-71
2022/01/09 05:03:30;;;;;;;;;22.00;20.50;;;;;21.44;46.99;99614.30;113059;1242;19190;-71
2022/01/09 05:05:56;;;;;;;;;22.00;17.00;;;;;21.42;46.94;99610.16;113008;1242;22225;-73
2022/01/09 05:08:22;;;;;;;;;21.50;20.50;;;;;21.43;46.85;99603.91;112992;1242;18615;-72
2022/01/09 05:10:48;;;;;;;;;20.50;18.00;;;;;21.44;46.81;99603.61;113018;1241;19188;-73
2022/01/09 05:13:13;;;;;;;;;24.50;21.00;;;;;21.43;46.71;99606.60;112999;1242;19413;-69
2022/01/09 05:15:39;;;;;;;;;22.00;20.00;;;;;21.43;46.68;99604.20;113040;1241;19210;-72
2022/01/09 05:18:12;;;;;;;;;20.50;18.00;;;;;21.43;46.60;99603.04;112954;1242;22974;-72
2022/01/09 05:20:38;;;;;;;;;21.00;19.33;;;;;21.43;46.82;99602.23;112974;1242;20976;-71
2022/01/09 05:23:04;;;;;;;;;20.00;20.00;;;;;21.43;46.58;99598.89;113435;1242;20894;-72
2022/01/09 05:25:30;;;;;;;;;24.50;21.00;;;;;21.42;46.55;99595.32;112880;1241;19220;-71
2022/01/09 05:27:56;;;;;;;;;21.50;21.50;;;;;21.42;46.62;99594.35;112940;1242;19140;-70
2022/01/09 05:30:21;;;;;;;;;21.00;20.00;;;;;21.43;46.56;99597.38;113000;1242;18472;-70
2022/01/09 05:32:47;;;;;;;;;22.00;20.50;;;;;21.42;46.66;99594.95;112994;1242;19441;-71
2022/01/09 05:35:13;;;;;;;;;21.50;21.00;;;;;21.42;46.41;99594.19;112999;1242;21415;-72
2022/01/09 05:37:39;;;;;;;;;21.50;18.00;;;;;21.41;46.47;99593.05;112983;1242;18638;-71
2022/01/09 05:40:05;;;;;;;;;22.00;20.50;;;;;21.41;46.52;99591.11;112981;1242;20612;-71
2022/01/09 05:42:31;;;;;;;;;22.00;21.50;;;;;21.40;46.43;99597.20;113010;1242;18571;-71
2022/01/09 05:44:57;;;;;;;;;24.50;20.00;;;;;21.40;46.56;99593.20;113004;1242;19186;-71
2022/01/09 05:47:23;;;;;;;;;26.00;21.50;;;;;21.41;46.34;99592.59;112983;1242;20891;-73
2022/01/09 05:49:48;;;;;;;;;24.00;21.00;;;;;21.41;46.24;99590.73;113002;1242;18440;-72
2022/01/09 05:52:14;;;;;;;;;24.00;20.00;;;;;21.39;46.23;99596.40;112979;1242;18539;-71
2022/01/09 05:54:40;;;;;;;;;22.00;21.00;;;;;21.39;46.33;99601.89;112999;1242;19591;-71
2022/01/09 05:57:06;;;;;;;;;24.00;21.00;;;;;21.40;46.36;99605.83;112968;1242;18560;-72
2022/01/09 05:59:32;;;;;;;;;24.00;21.00;;;;;21.39;46.33;99607.13;113003;1242;18557;-71
2022/01/09 06:01:58;;;;;;;;;25.00;22.00;;;;;21.39;46.06;99610.05;112982;1242;19180;-73
2022/01/09 06:04:25;;;;;;;;;24.50;20.50;;;;;21.40;46.04;99613.01;112996;1242;18432;-72
2022/01/09 06:06:50;;;;;;;;;24.00;21.67;;;;;21.40;46.27;99611.20;112979;1242;20330;-71
2022/01/09 06:09:16;;;;;;;;;25.00;22.50;;;;;21.39;46.21;99618.41;112974;1242;19831;-71
2022/01/09 06:11:42;;;;;;;;;25.00;22.00;;;;;21.40;46.27;99622.70;113019;1242;18442;-71
2022/01/09 06:14:08;;;;;;;;;21.00;20.00;;;;;21.40;46.16;99614.72;113004;1242;18565;-72
2022/01/09 06:16:34;;;;;;;;;22.00;21.00;;;;;21.39;46.24;99612.41;113001;1242;19390;-72
2022/01/09 06:19:00;;;;;;;;;23.33;21.00;;;;;21.39;46.24;99613.16;113022;1242;18764;-72
2022/01/09 06:21:26;;;;;;;;;21.00;20.00;;;;;21.37;46.18;99611.27;112967;1242;19372;-71
2022/01/09 06:23:52;;;;;;;;;22.50;17.50;;;;;21.39;46.00;99619.30;113021;1242;21231;-72
2022/01/09 06:26:18;;;;;;;;;24.00;18.00;;;;;21.39;46.21;99618.95;113043;1242;21829;-72
2022/01/09 06:28:44;;;;;;;;;20.50;20.00;;;;;21.39;46.15;99621.09;113026;1242;18562;-73
2022/01/09 06:31:10;;;;;;;;;23.00;20.50;;;;;21.38;46.16;99616.52;113001;1242;19189;-72
2022/01/09 06:33:36;;;;;;;;;24.00;20.50;;;;;21.38;45.95;99617.61;112987;1242;20587;-72
2022/01/09 06:36:02;;;;;;;;;21.00;20.00;;;;;21.39;46.01;99617.90;112982;1242;18553;-73
2022/01/09 06:38:27;;;;;;;;;25.00;24.00;;;;;21.38;46.15;99623.11;112962;1242;19495;-73
2022/01/09 06:40:53;;;;;;;;;24.00;21.50;;;;;21.38;46.08;99624.92;113026;1241;18890;-72
2022/01/09 06:43:19;;;;;;;;;21.00;20.00;;;;;21.37;45.90;99622.86;113033;1242;20824;-73
2022/01/09 06:45:45;;;;;;;;;18.00;17.00;;;;;21.40;45.89;99625.08;112953;1242;19276;-71
2022/01/09 06:48:11;;;;;;;;;21.50;19.00;;;;;21.42;45.86;99626.05;113011;1242;24578;-71
2022/01/09 06:50:37;;;;;;;;;24.50;17.50;;;;;21.47;45.94;99626.06;113071;1242;18690;-72
2022/01/09 06:53:03;;;;;;;;;21.00;17.00;;;;;21.50;46.03;99635.90;113057;1242;19141;-73
2022/01/09 06:55:28;;;;;;;;;22.50;20.00;;;;;21.51;46.62;99636.45;113011;1242;22801;-73
2022/01/09 06:57:54;;;;;;;;;26.50;21.00;;;;;21.50;46.54;99643.25;113028;1242;18586;-69
2022/01/09 07:00:20;;;;;;;;;20.00;18.00;;;;;21.46;47.02;99637.96;113062;1242;19728;-72
2022/01/09 07:02:46;;;;;;;;;23.00;20.50;;;;;21.47;47.44;99645.85;113104;1242;18548;-70
2022/01/09 07:05:12;;;;;;;;;18.00;18.00;;;;;21.44;47.68;99643.75;113091;1242;21843;-72
2022/01/09 07:07:38;;;;;;;;;27.00;22.00;;;;;21.45;47.64;99645.64;113055;1242;21678;-70
2022/01/09 07:10:04;;;;;;;;;25.00;21.00;;;;;21.44;47.36;99646.77;112980;1242;18395;-70
2022/01/09 07:12:30;;;;;;;;;22.00;18.00;;;;;21.48;47.29;99657.27;112976;1242;22926;-72
2022/01/09 07:14:55;;;;;;;;;24.00;18.00;;;;;21.49;47.52;99659.77;113029;1242;19288;-70
2022/01/09 07:17:21;;;;;;;;;20.50;19.00;;;;;21.51;47.44;99658.64;112982;1242;18403;-71
2022/01/09 07:19:47;;;;;;;;;21.00;20.00;;;;;21.51;47.75;99656.63;112935;1242;18706;-71
2022/01/09 07:22:13;;;;;;;;;24.50;22.00;;;;;21.50;48.09;99659.44;113026;1242;21561;-71
2022/01/09 07:24:39;;;;;;;;;22.00;21.00;;;;;21.50;47.85;99661.95;113015;1242;19084;-71
2022/01/09 07:27:05;;;;;;;;;22.00;21.00;;;;;21.51;48.05;99668.92;113116;1242;18462;-73
2022/01/09 07:29:30;;;;;;;;;31.00;25.00;;;;;21.51;48.14;99669.51;113005;1242;20342;-72
2022/01/09 07:31:56;;;;;;;;;21.00;18.00;;;;;21.51;48.18;99668.05;112980;1242;22018;-72
2022/01/09 07:34:22;;;;;;;;;21.00;18.00;;;;;21.54;48.17;99672.75;113075;1242;19450;-71
2022/01/09 07:36:48;;;;;;;;;23.00;21.00;;;;;21.54;48.19;99674.35;113045;1242;19276;-73
2022/01/09 07:39:14;;;;;;;;;22.00;22.00;;;;;21.53;48.18;99675.36;113024;1242;22126;-72
2022/01/09 07:41:40;;;;;;;;;24.00;20.00;;;;;21.51;48.63;99670.39;112964;1242;18588;-72
2022/01/09 07:44:06;;;;;;;;;22.00;20.00;;;;;21.50;48.46;99670.73;112999;1242;22976;-71
2022/01/09 07:46:32;;;;;;;;;21.00;21.00;;;;;21.53;48.29;99667.97;112861;1242;21674;-73
2022/01/09 07:48:58;;;;;;;;;24.00;20.00;;;;;21.55;48.51;99665.08;112930;1242;21743;-72
2022/01/09 07:51:24;;;;;;;;;22.50;21.00;;;;;21.58;48.63;99661.02;112898;1242;21520;-72
2022/01/09 07:53:50;;;;;;;;;24.00;23.00;;;;;21.58;49.26;99660.30;113013;1242;18376;-71
2022/01/09 07:56:16;;;;;;;;;23.00;23.00;;;;;21.60;49.52;99664.08;112949;1242;18610;-70
2022/01/09 07:58:41;;;;;;;;;24.50;22.00;;;;;21.63;49.63;99672.08;112893;1242;19171;-71
2022/01/09 08:01:07;;;;;;;;;25.50;23.00;;;;;21.64;49.72;99673.46;112898;1242;18399;-71
2022/01/09 08:03:35;;;;;;;;;25.00;21.00;;;;;21.66;49.78;99675.20;112935;1242;22988;-71
2022/01/09 08:06:01;;;;;;;;;23.33;21.67;;;;;21.67;50.41;99678.00;113071;1242;21955;-71
2022/01/09 08:08:27;;;;;;;;;21.00;19.50;;;;;21.71;51.39;99671.63;113078;1242;18569;-71
2022/01/09 08:10:53;;;;;;;;;24.50;24.00;;;;;21.76;51.49;99666.30;113053;1242;18472;-71
2022/01/09 08:13:18;;;;;;;;;31.00;25.00;;;;;21.75;51.95;99664.55;113081;1242;20483;-71
2022/01/09 08:15:44;;;;;;;;;22.00;21.50;;;;;21.78;51.90;99663.58;113014;1242;19000;-71
2022/01/09 08:18:10;;;;;;;;;23.50;20.50;;;;;21.79;52.58;99663.11;113048;1241;18485;-72
2022/01/09 08:20:36;;;;;;;;;23.67;21.67;;;;;21.80;52.75;99671.37;112969;1242;23725;-72
2022/01/09 08:23:02;;;;;;;;;26.00;23.00;;;;;21.80;52.91;99672.47;113061;1242;19229;-72
2022/01/09 08:25:28;;;;;;;;;21.50;19.50;;;;;21.80;52.26;99669.90;113002;1242;22240;-73
2022/01/09 08:27:55;;;;;;;;;25.00;23.00;;;;;21.84;52.27;99671.38;112968;1242;19242;-72
2022/01/09 08:30:21;;;;;;;;;21.50;21.50;;;;;21.86;51.56;99669.99;113004;1242;20086;-71
2022/01/09 08:32:47;;;;;;;;;23.00;23.00;;;;;21.87;50.81;99672.43;112995;1242;21996;-70
2022/01/09 08:35:13;;;;;;;;;27.50;24.00;;;;;21.89;50.29;99667.77;112975;1240;19367;-72
2022/01/09 08:37:41;;;;;;;;;29.00;25.50;;;;;21.90;50.49;99665.84;113023;1241;18410;-71
2022/01/09 08:40:07;;;;;;;;;29.67;25.67;;;;;21.92;50.42;99659.38;112968;1241;18662;-72
2022/01/09 08:42:33;;;;;;;;;22.00;21.50;;;;;21.92;50.18;99655.94;112885;1242;19876;-71
2022/01/09 08:44:59;;;;;;;;;32.50;29.50;;;;;21.94;50.27;99653.55;112854;1242;18680;-69
2022/01/09 08:47:25;;;;;;;;;30.00;26.00;;;;;21.95;50.01;99651.33;112944;1241;19721;-71
2022/01/09 08:49:51;;;;;;;;;25.50;22.00;;;;;21.95;49.88;99647.50;112938;1242;22220;-71
2022/01/09 08:52:17;;;;;;;;;29.50;26.00;;;;;21.94;50.12;99641.96;113009;1241;18925;-71
2022/01/09 08:54:43;;;;;;;;;30.50;26.50;;;;;21.96;49.81;99648.21;112967;1242;19224;-71
2022/01/09 08:57:08;;;;;;;;;26.00;24.50;;;;;21.96;49.73;99647.29;112981;1242;20050;-70
2022/01/09 08:59:34;;;;;;;;;30.50;26.50;;;;;22.00;49.05;99655.46;112806;1241;18582;-72
2022/01/09 09:02:00;;;;;;;;;34.50;31.00;;;;;22.07;48.74;99660.55;112814;1242;19133;-73
2022/01/09 09:04:26;;;;;;;;;27.00;24.00;;;;;22.07;49.38;99665.52;112921;1242;19863;-71
2022/01/09 09:06:52;;;;;;;;;29.00;26.00;;;;;22.10;49.91;99663.92;112872;1242;21499;-73
2022/01/09 09:09:18;;;;;;;;;29.00;26.00;;;;;22.10;49.25;99666.90;112950;1242;18912;-74
2022/01/09 09:11:44;;;;;;;;;26.00;22.00;;;;;22.12;49.08;99665.29;112937;1242;19589;-72
2022/01/09 09:14:10;;;;;;;;;30.00;25.50;;;;;22.14;49.74;99658.84;112970;1242;19813;-74
2022/01/09 09:16:35;;;;;;;;;24.00;22.00;;;;;22.17;49.50;99662.79;113098;1242;19212;-73
2022/01/09 09:19:01;;;;;;;;;25.00;23.50;;;;;22.30;49.28;99657.06;113036;1242;19862;-74
2022/01/09 09:21:27;;;;;;;;;30.50;26.00;;;;;22.48;48.61;99654.15;113021;1242;19125;-73
2022/01/09 09:23:53;;;;;;;;;26.50;22.00;;;;;22.47;48.42;99662.10;112983;1242;18715;-70
2022/01/09 09:26:21;;;;;;;;;38.50;27.00;;;;;22.40;48.43;99659.84;113095;1242;20049;-71
2022/01/09 09:28:47;;;;;;;;;28.00;27.00;;;;;22.34;48.13;99665.95;112993;1242;23632;-71
2022/01/09 09:31:13;;;;;;;;;27.00;24.50;;;;;22.31;48.14;99666.13;112987;1242;18492;-71
2022/01/09 09:33:39;;;;;;;;;30.33;27.33;;;;;22.30;47.93;99665.41;112967;1242;19534;-70
2022/01/09 09:36:05;;;;;;;;;28.50;26.00;;;;;22.28;48.12;99661.70;112962;1242;18507;-69
2022/01/09 09:38:31;;;;;;;;;33.50;27.50;;;;;22.27;48.45;99656.05;112992;1241;18591;-71
2022/01/09 09:40:57;;;;;;;;;26.50;24.00;;;;;22.24;48.77;99652.36;112976;1242;19313;-70
2022/01/09 09:43:22;;;;;;;;;32.50;24.00;;;;;22.23;48.52;99648.05;112975;1241;21926;-70
2022/01/09 09:45:48;;;;;;;;;27.00;26.00;;;;;22.22;48.60;99646.40;112988;1242;19335;-70
2022/01/09 09:48:14;;;;;;;;;28.00;26.00;;;;;22.20;48.57;99642.80;112940;1242;19216;-70
2022/01/09 09:50:40;;;;;;;;;31.50;27.00;;;;;22.14;48.35;99643.05;112959;1242;22157;-70
2022/01/09 09:53:06;;;;;;;;;34.50;27.00;;;;;22.10;47.98;99644.27;112961;1242;20234;-72
2022/01/09 09:55:32;;;;;;;;;31.00;29.50;;;;;22.06;47.94;99642.99;112957;1242;19403;-70
2022/01/09 09:57:58;;;;;;;;;27.50;24.50;;;;;22.00;48.16;99642.73;112898;1242;19112;-69
2022/01/09 10:00:24;;;;;;;;;42.67;39.00;;;;;21.98;47.93;99643.21;112877;1242;18983;-72
2022/01/09 10:02:50;;;;;;;;;43.00;38.00;;;;;21.96;48.04;99636.00;112936;1242;19665;-72
2022/01/09 10:05:16;;;;;;;;;44.00;36.00;;;;;21.95;48.00;99638.98;112900;1242;24675;-72
2022/01/09 10:07:42;;;;;;;;;46.50;39.00;;;;;21.94;47.91;99629.48;112970;1241;19249;-71
2022/01/09 10:10:09;;;;;;;;;37.00;31.50;;;;;21.94;47.95;99633.47;113023;1242;19142;-70
2022/01/09 10:12:35;;;;;;;;;62.33;46.00;;;;;21.97;47.77;99629.62;113008;1242;18647;-70
2022/01/09 10:15:00;;;;;;;;;62.00;47.00;;;;;21.98;48.07;99628.52;113009;1242;19232;-72
2022/01/09 10:17:26;;;;;;;;;61.00;46.33;;;;;21.98;48.99;99626.25;113022;1242;19360;-72
2022/01/09 10:19:52;;;;;;;;;64.00;47.00;;;;;21.97;49.23;99627.27;112991;1242;18363;-71
2022/01/09 10:22:18;;;;;;;;;59.00;46.00;;;;;21.94;49.43;99620.42;113068;1242;18906;-72
2022/01/09 10:24:44;;;;;;;;;63.67;49.00;;;;;21.87;49.27;99613.17;112936;1242;19798;-72
2022/01/09 10:27:10;;;;;;;;;59.33;45.00;;;;;21.86;47.66;99617.50;112928;1242;18946;-75
2022/01/09 10:29:36;;;;;;;;;61.00;48.00;;;;;21.84;48.21;99618.25;112942;1242;18602;-70
2022/01/09 10:32:01;;;;;;;;;66.00;51.00;;;;;21.82;48.97;99610.86;113000;1242;22324;-69
2022/01/09 10:34:27;;;;;;;;;70.00;52.00;;;;;21.83;49.00;99615.23;112987;1242;22594;-71
2022/01/09 10:36:53;;;;;;;;;68.33;52.00;;;;;21.82;48.74;99613.02;112964;1242;20395;-71
2022/01/09 10:39:19;;;;;;;;;64.00;47.00;;;;;21.79;49.29;99611.84;112951;1242;19125;-72
2022/01/09 10:41:45;;;;;;;;;60.67;47.00;;;;;21.77;49.26;99612.65;112965;1242;19293;-71
2022/01/09 10:44:11;;;;;;;;;66.33;51.00;;;;;21.76;49.42;99613.72;113021;1242;18556;-70
2022/01/09 10:46:37;;;;;;;;;64.67;52.00;;;;;21.75;49.50;99616.23;112981;1242;22363;-71
2022/01/09 10:49:03;;;;;;;;;64.67;50.00;;;;;21.73;49.54;99615.03;112936;1242;18556;-71
2022/01/09 10:51:29;;;;;;;;;66.67;48.33;;;;;21.73;49.58;99608.36;112980;1242;18607;-71
2022/01/09 10:53:55;;;;;;;;;65.33;49.67;;;;;21.70;49.48;99604.55;113035;1242;19242;-71
2022/01/09 10:56:20;;;;;;;;;61.33;49.33;;;;;21.69;49.53;99601.35;113009;1242;18869;-71
2022/01/09 10:58:46;;;;;;;;;61.00;47.00;;;;;21.74;49.83;99601.44;113079;1242;18598;-71
2022/01/09 11:01:12;;;;;;;;;64.00;49.67;;;;;21.82;49.80;99601.09;112898;1242;19351;-73
2022/01/09 11:03:38;;;;;;;;;62.67;49.67;;;;;21.86;49.95;99596.27;112697;1242;18482;-73